Richfield, Pennsylvania
Current Conditions -  °F | °C
As of 10:53 AM on Friday 24 Oct 2014 (Local Time) from KSEG Reporting Station
Clear Clear  
Wind Chill: 60°   Ceiling: Unl
Heat Index: 60°   Visibility: 10mi
Dew Point: 40°   Wind: 6mph
Humidity: 47%   Direction: 330°NNW
Pressure: 29.95"   Gusts: 18mph
Location:  40.69°N, 77.11°W
Report Text: KSEG 241453Z AUTO 33005G16KT 10SM CLR 16/04 A2995 RMK AO2 SLP142 T01560044 50003
Loading
Personal Weather Stations






























Interactive Weather Map
Tropical Storm Tracking
New forecast layout! Learn more

10-Day Weather Forecast

Advertisements
Track Severe Weather on mobile